createdAt,value
2017-12-15T00:01:53.220Z,95939.08
2017-12-15T00:04:22.080Z,95934.33
2017-12-15T00:06:50.389Z,95922.22
2017-12-15T00:09:20.423Z,95924.08
2017-12-15T00:11:48.721Z,95912.31
2017-12-15T00:14:17.025Z,95912.52
2017-12-15T00:16:45.380Z,95903.88
2017-12-15T00:19:13.680Z,95906.45
2017-12-15T00:21:41.984Z,95899.87
2017-12-15T00:24:11.593Z,95904.55
2017-12-15T00:26:39.898Z,95899.92
2017-12-15T00:29:08.337Z,95909.67
2017-12-15T00:31:36.948Z,95901.54
2017-12-15T00:34:05.584Z,95890.26
2017-12-15T00:36:33.883Z,95886.67
2017-12-15T00:39:02.232Z,95885.66
2017-12-15T00:41:30.951Z,95876.51
2017-12-15T00:43:59.248Z,95867.88
2017-12-15T00:46:27.712Z,95874.24
2017-12-15T00:48:56.004Z,95869.23
2017-12-15T00:51:24.306Z,95878.62
2017-12-15T00:53:52.647Z,95891.67
2017-12-15T00:56:21.720Z,95898.56
2017-12-15T00:58:50.029Z,95884.80
2017-12-15T01:01:18.845Z,95878.04
2017-12-15T01:03:47.182Z,95888.04
2017-12-15T01:06:16.249Z,95883.41
2017-12-15T01:08:44.624Z,95864.80
2017-12-15T01:11:12.943Z,95858.53
2017-12-15T01:13:41.244Z,95850.80
2017-12-15T01:16:09.604Z,95836.77
2017-12-15T01:18:37.900Z,95843.86
2017-12-15T01:21:06.199Z,95860.52
2017-12-15T01:23:34.554Z,95880.56
2017-12-15T01:26:02.857Z,95881.24
2017-12-15T01:28:31.159Z,95883.00
2017-12-15T01:30:59.652Z,95918.44
2017-12-15T01:33:27.969Z,95921.78
2017-12-15T01:35:56.272Z,95919.35
2017-12-15T01:38:24.647Z,95922.84
2017-12-15T01:40:52.988Z,95928.90
2017-12-15T01:43:21.052Z,95930.95
2017-12-15T01:45:49.616Z,95932.38
2017-12-15T01:48:17.915Z,95923.48
2017-12-15T01:50:46.216Z,95918.07
2017-12-15T01:53:14.573Z,95937.08
2017-12-15T01:55:42.877Z,95962.28
2017-12-15T01:58:11.176Z,95954.45
2017-12-15T02:00:40.369Z,95966.77
2017-12-15T02:03:08.674Z,95978.39
2017-12-15T02:05:37.741Z,95975.98
2017-12-15T02:08:06.108Z,95956.52
2017-12-15T02:10:34.408Z,95949.79
2017-12-15T02:13:02.723Z,95986.00
2017-12-15T02:15:31.081Z,96028.59
2017-12-15T02:17:59.398Z,96028.20
2017-12-15T02:20:27.696Z,96028.03
2017-12-15T02:22:56.050Z,96009.34
2017-12-15T02:25:24.585Z,95998.98
2017-12-15T02:27:52.892Z,96021.92
2017-12-15T02:30:21.439Z,96021.83
2017-12-15T02:32:50.680Z,96019.31
2017-12-15T02:35:19.007Z,96029.28
2017-12-15T02:37:47.371Z,96049.51
2017-12-15T02:40:15.677Z,96068.00
2017-12-15T02:42:43.976Z,96056.50
2017-12-15T02:45:12.332Z,96026.95
2017-12-15T02:47:40.641Z,96024.55
2017-12-15T02:50:08.949Z,96054.35
2017-12-15T02:52:37.305Z,96087.56
2017-12-15T02:55:05.603Z,96108.65
2017-12-15T02:57:33.908Z,96095.58
2017-12-15T03:00:02.262Z,96084.05
2017-12-15T03:02:30.564Z,96089.70
2017-12-15T03:04:58.867Z,96100.30
2017-12-15T03:07:28.464Z,96118.73
2017-12-15T03:09:56.770Z,96120.45
2017-12-15T03:12:25.249Z,96126.20
2017-12-15T03:14:54.082Z,96127.75
2017-12-15T03:17:25.468Z,96125.47
2017-12-15T03:19:53.829Z,96139.74
2017-12-15T03:22:22.135Z,96148.97
2017-12-15T03:24:51.196Z,96149.20
2017-12-15T03:27:19.576Z,96149.41
2017-12-15T03:29:47.912Z,96160.07
2017-12-15T03:32:16.237Z,96156.50
2017-12-15T03:34:44.596Z,96155.35
2017-12-15T03:37:12.916Z,96158.43
2017-12-15T03:39:41.224Z,96158.74
2017-12-15T03:42:09.692Z,96155.73
2017-12-15T03:44:38.480Z,96159.30
2017-12-15T03:47:06.820Z,96168.60
2017-12-15T03:49:35.905Z,96184.05
2017-12-15T03:52:05.077Z,96209.20
2017-12-15T03:54:33.500Z,96227.54
2017-12-15T03:57:03.300Z,96236.09
2017-12-15T03:59:31.644Z,96236.75
2017-12-15T04:02:00.477Z,96235.23
2017-12-15T04:04:28.784Z,96230.84
2017-12-15T04:06:57.112Z,96249.13
2017-12-15T04:09:25.417Z,96247.20
2017-12-15T04:11:53.717Z,96251.06
2017-12-15T04:14:22.077Z,96257.37
2017-12-15T04:16:51.768Z,96260.42
2017-12-15T04:19:20.069Z,96264.38
2017-12-15T04:21:48.427Z,96267.81
2017-12-15T04:24:16.740Z,96269.30
2017-12-15T04:26:45.048Z,96277.45
2017-12-15T04:29:13.401Z,96280.08
2017-12-15T04:31:41.696Z,96280.91
2017-12-15T04:34:10.919Z,96280.91
2017-12-15T04:36:39.293Z,96276.77
2017-12-15T04:39:08.360Z,96277.16
2017-12-15T04:41:36.901Z,96277.47
2017-12-15T04:44:05.243Z,96290.20
2017-12-15T04:46:33.557Z,96287.67
2017-12-15T04:49:01.881Z,96289.52
2017-12-15T04:51:30.247Z,96293.19
2017-12-15T04:53:58.540Z,96297.27
2017-12-15T04:56:26.844Z,96288.83
2017-12-15T04:58:55.212Z,96294.82
2017-12-15T05:01:23.517Z,96293.22
2017-12-15T05:03:51.824Z,96305.34
2017-12-15T05:06:20.181Z,96301.05
2017-12-15T05:08:48.484Z,96309.19
2017-12-15T05:11:16.790Z,96305.70
2017-12-15T05:13:45.355Z,96311.09
2017-12-15T05:16:13.724Z,96316.00
2017-12-15T05:18:41.997Z,96325.86
2017-12-15T05:21:10.347Z,96326.89
2017-12-15T05:23:39.335Z,96327.63
2017-12-15T05:26:07.645Z,96327.37
2017-12-15T05:28:36.612Z,96325.00
2017-12-15T05:31:04.919Z,96330.92
2017-12-15T05:33:33.229Z,96337.06
2017-12-15T05:36:01.576Z,96332.50
2017-12-15T05:38:29.889Z,96334.63
2017-12-15T05:40:58.193Z,96337.59
2017-12-15T05:43:26.801Z,96342.59
2017-12-15T05:45:59.557Z,96335.01
2017-12-15T05:48:28.814Z,96338.84
2017-12-15T05:50:57.121Z,96347.54
2017-12-15T05:53:25.424Z,96348.58
2017-12-15T05:55:54.536Z,96353.84
2017-12-15T05:58:23.887Z,96354.18
2017-12-15T06:00:52.228Z,96360.72
2017-12-15T06:03:20.620Z,96366.97
2017-12-15T06:05:48.923Z,96364.20
2017-12-15T06:08:17.557Z,96377.81
2017-12-15T06:10:46.483Z,96381.67
2017-12-15T06:13:14.804Z,96389.80
2017-12-15T06:15:43.172Z,96387.25
2017-12-15T06:18:11.477Z,96392.20
2017-12-15T06:20:41.223Z,96388.50
2017-12-15T06:23:09.588Z,96393.49
2017-12-15T06:25:37.892Z,96392.02
2017-12-15T06:28:06.281Z,96398.71
2017-12-15T06:30:34.635Z,96415.30
2017-12-15T06:33:02.936Z,96409.14
2017-12-15T06:35:31.245Z,96408.64
2017-12-15T06:38:00.373Z,96410.87
2017-12-15T06:40:28.676Z,96411.67
2017-12-15T06:42:56.980Z,96407.97
2017-12-15T06:45:25.468Z,96406.77
2017-12-15T06:47:53.778Z,96405.69
2017-12-15T06:50:22.076Z,96409.30
2017-12-15T06:52:50.524Z,96408.08
2017-12-15T06:55:19.352Z,96413.67
2017-12-15T06:57:47.672Z,96405.70
2017-12-15T07:00:16.264Z,96410.72
2017-12-15T07:02:45.814Z,96411.41
2017-12-15T07:05:14.125Z,96411.02
2017-12-15T07:07:42.491Z,96410.97
2017-12-15T07:10:10.796Z,96402.64
2017-12-15T07:12:39.099Z,96406.50
2017-12-15T07:15:08.029Z,96402.77
2017-12-15T07:17:36.340Z,96400.28
2017-12-15T07:20:04.644Z,96405.17
2017-12-15T07:22:33.232Z,96396.31
2017-12-15T07:25:02.296Z,96394.66
2017-12-15T07:27:30.776Z,96397.09
2017-12-15T07:29:59.143Z,96395.34
2017-12-15T07:32:27.448Z,96400.25
2017-12-15T07:34:55.799Z,96395.56
2017-12-15T07:37:24.290Z,96399.16
2017-12-15T07:39:52.631Z,96379.43
2017-12-15T07:42:20.910Z,96376.84
2017-12-15T07:44:49.279Z,96376.86
2017-12-15T07:47:18.573Z,96371.06
2017-12-15T07:49:46.881Z,96368.01
2017-12-15T07:52:15.244Z,96364.47
2017-12-15T07:54:43.540Z,96371.16
2017-12-15T07:57:11.846Z,96370.80
2017-12-15T07:59:40.247Z,96373.30
2017-12-15T08:02:09.300Z,96371.53
2017-12-15T08:04:37.633Z,96365.77
2017-12-15T08:07:06.004Z,96361.43
2017-12-15T08:09:34.300Z,96367.64
2017-12-15T08:12:02.600Z,96369.75
2017-12-15T08:14:31.429Z,96368.72
2017-12-15T08:16:59.752Z,96366.72
2017-12-15T08:19:28.043Z,96371.06
2017-12-15T08:21:56.371Z,96370.41
2017-12-15T08:24:24.808Z,96377.72
2017-12-15T08:26:53.113Z,96382.86
2017-12-15T08:29:21.481Z,96385.89
2017-12-15T08:31:49.776Z,96382.32
2017-12-15T08:34:18.096Z,96388.45
2017-12-15T08:36:46.473Z,96389.52
2017-12-15T08:39:14.772Z,96389.17
2017-12-15T08:41:43.476Z,96378.38
2017-12-15T08:44:12.566Z,96376.35
2017-12-15T08:46:40.880Z,96374.70
2017-12-15T08:49:09.196Z,96366.78
2017-12-15T08:51:38.017Z,96365.98
2017-12-15T08:54:06.314Z,96372.28
2017-12-15T08:56:34.665Z,96370.36
2017-12-15T08:59:03.009Z,96367.66
2017-12-15T09:01:31.322Z,96376.30
2017-12-15T09:04:05.225Z,96374.86
2017-12-15T09:06:33.824Z,96376.68
2017-12-15T09:09:02.137Z,96372.72
2017-12-15T09:11:30.497Z,96365.92
2017-12-15T09:13:59.556Z,96376.98
2017-12-15T09:16:28.272Z,96368.44
2017-12-15T09:18:56.706Z,96365.81
2017-12-15T09:21:25.008Z,96363.85
2017-12-15T09:23:53.312Z,96364.52
2017-12-15T09:26:22.277Z,96373.63
2017-12-15T09:28:50.592Z,96369.45
2017-12-15T09:31:18.896Z,96375.36
2017-12-15T09:33:47.253Z,96379.26
2017-12-15T09:36:15.564Z,96380.92
2017-12-15T09:38:43.868Z,96370.87
2017-12-15T09:41:12.224Z,96374.59
2017-12-15T09:43:40.530Z,96380.00
2017-12-15T09:46:09.900Z,96384.92
2017-12-15T09:48:38.665Z,96378.97
2017-12-15T09:51:06.977Z,96372.08
2017-12-15T09:53:35.280Z,96382.76
2017-12-15T09:56:04.872Z,96386.84
2017-12-15T09:58:33.176Z,96382.79
2017-12-15T10:01:01.478Z,96388.27
2017-12-15T10:03:29.813Z,96376.73
2017-12-15T10:05:58.875Z,96381.97
2017-12-15T10:08:27.177Z,96385.39
2017-12-15T10:10:55.524Z,96384.39
2017-12-15T10:13:23.820Z,96385.51
2017-12-15T10:15:52.484Z,96380.52
2017-12-15T10:18:21.404Z,96384.09
2017-12-15T10:20:49.716Z,96385.19
2017-12-15T10:23:18.420Z,96391.95
2017-12-15T10:25:46.765Z,96379.53
2017-12-15T10:28:14.836Z,96381.02
2017-12-15T10:30:43.181Z,96386.80
2017-12-15T10:33:11.607Z,96381.41
2017-12-15T10:35:40.692Z,96376.59
2017-12-15T10:38:09.008Z,96386.13
2017-12-15T10:40:37.802Z,96377.67
2017-12-15T10:43:06.257Z,96376.98
2017-12-15T10:45:35.240Z,96380.69
2017-12-15T10:48:03.651Z,96378.98
2017-12-15T10:50:31.952Z,96368.72
2017-12-15T10:53:00.256Z,96377.88
2017-12-15T10:55:28.619Z,96384.98
2017-12-15T10:57:57.348Z,96374.70
2017-12-15T11:00:25.654Z,96371.81
2017-12-15T11:02:54.872Z,96371.94
2017-12-15T11:05:23.176Z,96374.38
2017-12-15T11:07:51.490Z,96372.23
2017-12-15T11:10:19.867Z,96372.55
2017-12-15T11:12:48.207Z,96355.03
2017-12-15T11:15:16.504Z,96356.48
2017-12-15T11:17:45.375Z,96351.75
2017-12-15T11:20:13.704Z,96351.36
2017-12-15T11:22:42.749Z,96345.44
2017-12-15T11:25:11.102Z,96352.17
2017-12-15T11:27:39.401Z,96346.47
2017-12-15T11:30:07.717Z,96349.20
2017-12-15T11:32:36.076Z,96355.70
2017-12-15T11:35:04.376Z,96353.47
2017-12-15T11:37:32.686Z,96351.41
2017-12-15T11:40:01.021Z,96345.97
2017-12-15T11:42:30.305Z,96352.29
2017-12-15T11:44:59.377Z,96357.31
2017-12-15T11:47:27.956Z,96343.44
2017-12-15T11:49:56.504Z,96349.91
2017-12-15T11:52:24.804Z,96341.16
2017-12-15T11:54:53.119Z,96339.52
2017-12-15T11:57:22.260Z,96352.52
2017-12-15T11:59:50.559Z,96355.80
2017-12-15T12:02:18.877Z,96349.56
2017-12-15T12:04:47.240Z,96355.06
2017-12-15T12:07:15.545Z,96358.20
2017-12-15T12:09:43.855Z,96353.93
2017-12-15T12:12:12.198Z,96359.92
2017-12-15T12:14:40.516Z,96355.13
2017-12-15T12:17:08.816Z,96358.63
2017-12-15T12:19:37.148Z,96357.40
2017-12-15T12:22:05.449Z,96355.87
2017-12-15T12:24:33.767Z,96358.23
2017-12-15T12:27:02.108Z,96354.88
2017-12-15T12:29:30.407Z,96356.54
2017-12-15T12:31:58.717Z,96343.05
2017-12-15T12:34:27.080Z,96349.14
2017-12-15T12:36:55.380Z,96342.67
2017-12-15T12:39:23.693Z,96349.30
2017-12-15T12:41:52.040Z,96345.47
2017-12-15T12:44:20.339Z,96349.48
2017-12-15T12:46:48.638Z,96352.91
2017-12-15T12:49:18.492Z,96349.78
2017-12-15T12:51:46.796Z,96358.78
2017-12-15T12:54:15.129Z,96360.20
2017-12-15T12:56:43.569Z,96355.41
2017-12-15T12:59:11.939Z,96358.63
2017-12-15T13:01:41.180Z,96363.70
2017-12-15T13:04:09.720Z,96365.60
2017-12-15T13:06:38.016Z,96364.56
2017-12-15T13:09:06.321Z,96363.03
2017-12-15T13:11:35.917Z,96363.53
2017-12-15T13:14:04.224Z,96358.16
2017-12-15T13:16:32.531Z,96350.23
2017-12-15T13:19:01.340Z,96356.70
2017-12-15T13:21:29.701Z,96357.33
2017-12-15T13:23:58.096Z,96359.40
2017-12-15T13:26:27.219Z,96367.52
2017-12-15T13:28:55.528Z,96369.34
2017-12-15T13:31:23.865Z,96371.80
2017-12-15T13:33:52.408Z,96377.89
2017-12-15T13:36:21.043Z,96373.30
2017-12-15T13:38:49.378Z,96379.63
2017-12-15T13:41:17.676Z,96387.78
2017-12-15T13:43:46.040Z,96403.23
2017-12-15T13:46:14.344Z,96402.70
2017-12-15T13:48:42.404Z,96405.83
2017-12-15T13:51:10.761Z,96410.69
2017-12-15T13:53:39.060Z,96411.89
2017-12-15T13:56:07.380Z,96410.34
2017-12-15T13:58:36.408Z,96411.89
2017-12-15T14:01:04.707Z,96405.64
2017-12-15T14:03:33.013Z,96396.89
2017-12-15T14:06:01.472Z,96418.19
2017-12-15T14:08:29.777Z,96419.02
2017-12-15T14:10:58.091Z,96422.14
2017-12-15T14:13:27.033Z,96421.11
2017-12-15T14:15:56.107Z,96429.58
2017-12-15T14:18:24.553Z,96423.01
2017-12-15T14:20:52.915Z,96436.12
2017-12-15T14:23:21.668Z,96438.05
2017-12-15T14:25:49.968Z,96444.53
2017-12-15T14:28:18.320Z,96459.29
2017-12-15T14:30:46.629Z,96460.42
2017-12-15T14:33:14.923Z,96466.61
2017-12-15T14:35:43.902Z,96467.88
2017-12-15T14:38:12.208Z,96481.33
2017-12-15T14:40:40.509Z,96488.49
2017-12-15T14:43:08.867Z,96494.48
2017-12-15T14:45:37.164Z,96501.92
2017-12-15T14:48:05.515Z,96510.91
2017-12-15T14:50:33.883Z,96515.16
2017-12-15T14:53:02.513Z,96515.20
2017-12-15T14:55:30.820Z,96513.56
2017-12-15T14:57:59.192Z,96514.23
2017-12-15T15:00:27.504Z,96518.27
2017-12-15T15:02:55.814Z,96528.36
2017-12-15T15:05:24.172Z,96523.91
2017-12-15T15:07:52.476Z,96526.89
2017-12-15T15:10:20.784Z,96530.53
2017-12-15T15:12:49.129Z,96535.41
2017-12-15T15:15:17.432Z,96534.64
2017-12-15T15:17:45.496Z,96535.64
2017-12-15T15:20:16.839Z,96537.55
2017-12-15T15:22:45.376Z,96540.39
2017-12-15T15:25:13.676Z,96536.42
2017-12-15T15:27:42.044Z,96533.92
2017-12-15T15:30:10.359Z,96537.19
2017-12-15T15:32:38.963Z,96535.95
2017-12-15T15:35:07.325Z,96529.27
2017-12-15T15:37:35.631Z,96528.20
2017-12-15T15:40:03.972Z,96533.37
2017-12-15T15:42:32.459Z,96530.52
2017-12-15T15:45:01.273Z,96528.69
2017-12-15T15:47:29.635Z,96525.80
2017-12-15T15:49:57.991Z,96519.53
2017-12-15T15:52:26.301Z,96524.13
2017-12-15T15:54:54.791Z,96529.76
2017-12-15T15:57:23.916Z,96533.56
2017-12-15T15:59:52.250Z,96532.97
2017-12-15T16:02:20.582Z,96533.18
2017-12-15T16:04:48.992Z,96535.20
2017-12-15T16:07:17.310Z,96536.42
2017-12-15T16:09:45.624Z,96536.16
2017-12-15T16:12:13.984Z,96538.19
2017-12-15T16:14:42.314Z,96539.61
2017-12-15T16:17:10.640Z,96532.19
2017-12-15T16:19:39.484Z,96534.30
2017-12-15T16:22:07.853Z,96533.28
2017-12-15T16:24:36.208Z,96529.44
2017-12-15T16:27:04.600Z,96528.62
2017-12-15T16:29:33.551Z,96527.20
2017-12-15T16:32:01.869Z,96524.69
2017-12-15T16:34:30.238Z,96516.70
2017-12-15T16:36:59.106Z,96522.03
2017-12-15T16:39:27.428Z,96514.86
2017-12-15T16:41:56.427Z,96519.00
2017-12-15T16:44:24.757Z,96519.02
2017-12-15T16:46:53.076Z,96522.34
2017-12-15T16:49:21.444Z,96518.17
2017-12-15T16:51:49.775Z,96521.23
2017-12-15T16:54:19.160Z,96519.73
2017-12-15T16:56:48.643Z,96526.25
2017-12-15T16:59:16.964Z,96520.78
2017-12-15T17:01:45.291Z,96516.31
2017-12-15T17:04:13.667Z,96510.00
2017-12-15T17:06:42.004Z,96510.22
2017-12-15T17:09:10.333Z,96510.09
2017-12-15T17:11:38.700Z,96512.90
2017-12-15T17:14:08.421Z,96510.82
2017-12-15T17:16:37.513Z,96508.70
2017-12-15T17:19:05.869Z,96513.16
2017-12-15T17:21:34.180Z,96521.98
2017-12-15T17:24:02.502Z,96518.67
2017-12-15T17:26:30.876Z,96519.22
2017-12-15T17:28:59.779Z,96514.28
2017-12-15T17:31:28.099Z,96517.15
2017-12-15T17:33:56.428Z,96512.70
2017-12-15T17:36:24.796Z,96514.89
2017-12-15T17:38:53.665Z,96523.99
2017-12-15T17:41:21.988Z,96522.81
2017-12-15T17:43:50.364Z,96520.24
2017-12-15T17:46:18.685Z,96524.86
2017-12-15T17:48:47.773Z,96525.16
2017-12-15T17:51:17.376Z,96523.73
2017-12-15T17:53:45.688Z,96528.50
2017-12-15T17:56:14.032Z,96522.23
2017-12-15T17:58:44.103Z,96527.03
2017-12-15T18:01:14.408Z,96528.34
2017-12-15T18:03:42.733Z,96533.41
2017-12-15T18:06:11.089Z,96534.20
2017-12-15T18:08:39.416Z,96537.05
2017-12-15T18:11:07.848Z,96543.88
2017-12-15T18:13:36.192Z,96546.74
2017-12-15T18:16:05.504Z,96554.94
2017-12-15T18:18:34.184Z,96562.09
2017-12-15T18:21:03.070Z,96559.17
2017-12-15T18:23:31.540Z,96559.23
2017-12-15T18:25:59.844Z,96568.34
2017-12-15T18:28:28.149Z,96561.89
2017-12-15T18:30:56.526Z,96567.50
2017-12-15T18:33:25.136Z,96568.02
2017-12-15T18:35:53.597Z,96570.66
2017-12-15T18:38:21.976Z,96569.77
2017-12-15T18:40:50.281Z,96570.66
2017-12-15T18:43:18.607Z,96573.88
2017-12-15T18:45:46.991Z,96571.87
2017-12-15T18:48:15.323Z,96575.48
2017-12-15T18:50:43.659Z,96582.78
2017-12-15T18:53:12.045Z,96583.16
2017-12-15T18:55:41.076Z,96584.86
2017-12-15T18:58:09.405Z,96586.13
2017-12-15T19:00:37.774Z,96592.47
2017-12-15T19:03:06.094Z,96596.67
2017-12-15T19:05:34.408Z,96597.88
2017-12-15T19:08:02.864Z,96597.19
2017-12-15T19:10:31.227Z,96595.56
2017-12-15T19:12:59.536Z,96602.28
2017-12-15T19:15:27.881Z,96599.01
2017-12-15T19:17:56.201Z,96606.44
2017-12-15T19:20:24.535Z,96610.58
2017-12-15T19:22:52.904Z,96606.12
2017-12-15T19:25:21.224Z,96612.86
2017-12-15T19:27:49.548Z,96610.59
2017-12-15T19:30:17.964Z,96618.30
2017-12-15T19:32:47.485Z,96615.64
2017-12-15T19:35:16.676Z,96615.03
2017-12-15T19:37:45.040Z,96616.23
2017-12-15T19:40:13.452Z,96619.13
2017-12-15T19:42:41.962Z,96615.48
2017-12-15T19:45:10.832Z,96619.98
2017-12-15T19:47:39.361Z,96621.01
2017-12-15T19:50:07.688Z,96618.88
2017-12-15T19:52:36.007Z,96618.19
2017-12-15T19:55:04.412Z,96618.91
2017-12-15T19:57:34.200Z,96620.43
2017-12-15T20:00:02.520Z,96626.56
2017-12-15T20:02:30.850Z,96626.19
2017-12-15T20:04:59.180Z,96628.42
2017-12-15T20:07:27.569Z,96634.02
2017-12-15T20:09:56.544Z,96633.95
2017-12-15T20:12:24.919Z,96633.54
2017-12-15T20:14:53.329Z,96635.42
2017-12-15T20:17:21.652Z,96639.15
2017-12-15T20:19:50.047Z,96641.75
2017-12-15T20:22:19.208Z,96639.24
2017-12-15T20:24:47.532Z,96642.31
2017-12-15T20:27:15.861Z,96640.88
2017-12-15T20:29:44.296Z,96641.36
2017-12-15T20:32:12.618Z,96646.20
2017-12-15T20:34:41.508Z,96644.96
2017-12-15T20:37:09.972Z,96647.08
2017-12-15T20:39:38.300Z,96650.48
2017-12-15T20:42:06.620Z,96651.11
2017-12-15T20:44:34.989Z,96652.75
2017-12-15T20:47:03.312Z,96647.13
2017-12-15T20:49:32.116Z,96646.41
2017-12-15T20:52:00.592Z,96644.13
2017-12-15T20:54:29.547Z,96651.39
2017-12-15T20:56:57.924Z,96649.91
2017-12-15T20:59:26.410Z,96649.46
2017-12-15T21:01:54.488Z,96655.09
2017-12-15T21:04:23.046Z,96652.22
2017-12-15T21:06:51.488Z,96658.94
2017-12-15T21:09:19.859Z,96652.53
2017-12-15T21:11:48.220Z,96649.48
2017-12-15T21:14:16.843Z,96651.91
2017-12-15T21:16:45.973Z,96654.02
2017-12-15T21:19:14.349Z,96651.73
2017-12-15T21:21:45.333Z,96654.09
2017-12-15T21:24:14.641Z,96649.69
2017-12-15T21:26:42.993Z,96645.14
2017-12-15T21:29:11.406Z,96652.57
2017-12-15T21:31:39.953Z,96651.40
2017-12-15T21:34:08.686Z,96658.73
2017-12-15T21:36:37.626Z,96652.70
2017-12-15T21:39:06.180Z,96653.72
2017-12-15T21:41:34.940Z,96650.64
2017-12-15T21:44:03.452Z,96657.50
2017-12-15T21:46:32.152Z,96656.20
2017-12-15T21:49:00.989Z,96667.76
2017-12-15T21:51:29.344Z,96655.84
2017-12-15T21:53:57.712Z,96662.47
2017-12-15T21:56:26.068Z,96660.52
2017-12-15T21:58:54.440Z,96658.91
2017-12-15T22:01:22.937Z,96659.08
2017-12-15T22:03:51.305Z,96663.70
2017-12-15T22:06:20.078Z,96661.48
2017-12-15T22:08:48.444Z,96664.67
2017-12-15T22:11:16.825Z,96667.64
2017-12-15T22:13:45.941Z,96664.20
2017-12-15T22:16:15.468Z,96668.72
2017-12-15T22:18:43.780Z,96668.25
2017-12-15T22:21:12.562Z,96672.80
2017-12-15T22:23:44.960Z,96676.64
2017-12-15T22:26:13.428Z,96680.52
2017-12-15T22:28:42.632Z,96678.45
2017-12-15T22:31:11.133Z,96681.46
2017-12-15T22:33:39.510Z,96680.00
2017-12-15T22:36:07.828Z,96684.05
2017-12-15T22:38:36.141Z,96692.37
2017-12-15T22:41:04.497Z,96691.78
2017-12-15T22:43:32.846Z,96697.03
2017-12-15T22:46:01.750Z,96697.01
2017-12-15T22:48:30.113Z,96698.38
2017-12-15T22:50:58.442Z,96697.89
2017-12-15T22:53:26.751Z,96702.19
2017-12-15T22:55:55.100Z,96701.00
2017-12-15T22:58:23.421Z,96704.26
2017-12-15T23:00:52.268Z,96705.39
2017-12-15T23:03:20.693Z,96701.93
2017-12-15T23:05:49.068Z,96695.27
2017-12-15T23:08:17.456Z,96695.23
2017-12-15T23:10:45.870Z,96693.23
2017-12-15T23:13:14.452Z,96690.84
2017-12-15T23:15:43.251Z,96690.67
2017-12-15T23:18:11.567Z,96695.90
2017-12-15T23:20:40.650Z,96698.86
2017-12-15T23:23:08.978Z,96702.62
2017-12-15T23:25:37.944Z,96706.20
2017-12-15T23:28:06.260Z,96706.77
2017-12-15T23:30:35.517Z,96710.26
2017-12-15T23:33:04.388Z,96699.00
2017-12-15T23:35:32.747Z,96705.30
2017-12-15T23:38:01.133Z,96704.05
2017-12-15T23:40:29.485Z,96699.42
2017-12-15T23:42:57.798Z,96706.89
2017-12-15T23:45:26.970Z,96705.09
2017-12-15T23:47:55.310Z,96707.30
2017-12-15T23:50:23.698Z,96700.89
2017-12-15T23:52:52.051Z,96699.25
2017-12-15T23:55:37.987Z,96699.18
2017-12-15T23:58:06.899Z,96704.98
